createdAt,value
2023-05-17T00:01:34.070Z,7.40
2023-05-17T00:05:39.227Z,7.30
2023-05-17T00:09:42.880Z,7.30
2023-05-17T00:13:46.479Z,7.30
2023-05-17T00:17:49.930Z,7.30
2023-05-17T00:21:57.011Z,7.20
2023-05-17T00:26:00.421Z,7.20
2023-05-17T00:30:06.129Z,7.30
2023-05-17T00:34:09.508Z,7.30
2023-05-17T00:38:15.690Z,7.30
2023-05-17T00:42:19.126Z,7.30
2023-05-17T00:46:23.975Z,7.30
2023-05-17T00:50:27.669Z,7.30
2023-05-17T00:54:33.201Z,7.20
2023-05-17T00:58:38.842Z,7.20
2023-05-17T01:02:44.843Z,7.20
2023-05-17T01:06:48.885Z,7.20
2023-05-17T01:11:00.411Z,7.20
2023-05-17T01:15:14.901Z,7.20
2023-05-17T01:19:45.026Z,7.20
2023-05-17T01:24:03.764Z,7.20
2023-05-17T01:28:12.117Z,7.20
2023-05-17T01:32:17.639Z,7.10
2023-05-17T01:36:21.602Z,7.10
2023-05-17T01:40:26.256Z,7.10
2023-05-17T01:44:40.596Z,7.10
2023-05-17T01:48:51.246Z,7.10
2023-05-17T01:52:57.343Z,7.10
2023-05-17T01:57:01.724Z,7.10
2023-05-17T02:01:07.879Z,7.00
2023-05-17T02:05:11.534Z,7.10
2023-05-17T02:09:16.620Z,7.10
2023-05-17T02:13:20.211Z,7.10
2023-05-17T02:17:25.726Z,7.00
2023-05-17T02:21:29.229Z,7.00
2023-05-17T02:25:32.717Z,7.00
2023-05-17T02:29:36.220Z,7.00
2023-05-17T02:33:41.254Z,7.00
2023-05-17T02:37:45.028Z,7.00
2023-05-17T02:41:49.491Z,7.00
2023-05-17T02:45:53.672Z,6.90
2023-05-17T02:49:58.661Z,6.90
2023-05-17T02:54:02.279Z,6.90
2023-05-17T02:58:05.962Z,6.80
2023-05-17T03:02:10.895Z,6.70
2023-05-17T03:06:16.263Z,6.60
2023-05-17T03:10:20.044Z,6.50
2023-05-17T03:14:24.179Z,6.50
2023-05-17T03:18:29.221Z,6.50
2023-05-17T03:22:35.849Z,6.40
2023-05-17T03:26:39.537Z,6.40
2023-05-17T03:30:45.374Z,6.30
2023-05-17T03:34:49.707Z,6.30
2023-05-17T03:38:54.740Z,6.30
2023-05-17T03:42:58.318Z,6.20
2023-05-17T03:47:04.487Z,6.20
2023-05-17T03:51:08.647Z,6.20
2023-05-17T03:55:13.942Z,6.20
2023-05-17T03:59:18.122Z,6.20
2023-05-17T04:03:22.474Z,6.20
2023-05-17T04:07:26.060Z,6.30
2023-05-17T04:11:31.041Z,6.30
2023-05-17T04:15:35.512Z,6.20
2023-05-17T04:19:40.733Z,6.20
2023-05-17T04:23:44.301Z,6.20
2023-05-17T04:27:50.071Z,6.20
2023-05-17T04:31:53.708Z,6.20
2023-05-17T04:35:57.815Z,6.20
2023-05-17T04:40:03.649Z,6.10
2023-05-17T04:44:10.812Z,6.20
2023-05-17T04:48:14.707Z,6.20
2023-05-17T04:52:18.571Z,6.10
2023-05-17T04:56:23.181Z,6.00
2023-05-17T05:00:29.741Z,6.00
2023-05-17T05:04:38.983Z,6.00
2023-05-17T05:08:42.688Z,6.10
2023-05-17T05:12:50.288Z,6.00
2023-05-17T05:16:55.951Z,6.00
2023-05-17T05:21:00.514Z,6.00
2023-05-17T05:25:04.827Z,6.00
2023-05-17T05:29:10.588Z,6.10
2023-05-17T05:33:16.757Z,6.10
2023-05-17T05:37:21.651Z,6.10
2023-05-17T05:41:25.233Z,6.00
2023-05-17T05:45:29.859Z,6.00
2023-05-17T05:49:39.301Z,5.90
2023-05-17T05:53:43.129Z,5.80
2023-05-17T05:57:46.771Z,5.80
2023-05-17T06:01:51.310Z,5.90
2023-05-17T06:05:56.992Z,5.70
2023-05-17T06:10:00.581Z,5.70
2023-05-17T06:14:05.193Z,5.60
2023-05-17T06:18:08.785Z,5.50
2023-05-17T06:22:15.033Z,5.60
2023-05-17T06:26:18.462Z,5.70
2023-05-17T06:30:22.462Z,5.80
2023-05-17T06:34:25.866Z,5.60
2023-05-17T06:38:33.192Z,5.70
2023-05-17T06:42:36.575Z,5.70
2023-05-17T06:46:40.119Z,5.60
2023-05-17T06:50:43.608Z,5.50
2023-05-17T06:54:48.786Z,5.60
2023-05-17T06:58:52.135Z,5.70
2023-05-17T07:02:57.017Z,5.70
2023-05-17T07:07:01.588Z,5.70
2023-05-17T07:11:06.721Z,5.90
2023-05-17T07:15:13.198Z,5.90
2023-05-17T07:19:16.782Z,6.00
2023-05-17T07:23:20.370Z,6.00
2023-05-17T07:27:25.323Z,6.10
2023-05-17T07:31:28.819Z,6.00
2023-05-17T07:35:32.404Z,5.90
2023-05-17T07:39:37.210Z,6.00
2023-05-17T07:43:42.424Z,6.10
2023-05-17T07:47:46.062Z,6.30
2023-05-17T07:51:52.277Z,6.40
2023-05-17T07:55:55.744Z,6.40
2023-05-17T08:00:00.890Z,6.40
2023-05-17T08:04:07.134Z,6.30
2023-05-17T08:08:10.694Z,6.50
2023-05-17T08:12:14.520Z,6.60
2023-05-17T08:16:19.423Z,6.80
2023-05-17T08:20:23.006Z,6.80
2023-05-17T08:24:26.572Z,6.80
2023-05-17T08:28:33.735Z,6.70
2023-05-17T08:32:38.906Z,6.80
2023-05-17T08:36:43.288Z,7.00
2023-05-17T08:40:55.941Z,7.00
2023-05-17T08:44:59.839Z,7.00
2023-05-17T08:49:08.724Z,6.80
2023-05-17T08:53:12.580Z,6.70
2023-05-17T08:57:18.474Z,6.70
2023-05-17T09:01:25.224Z,6.70
2023-05-17T09:05:31.516Z,6.60
2023-05-17T09:09:35.407Z,6.70
2023-05-17T09:13:39.240Z,6.80
2023-05-17T09:17:43.478Z,6.80
2023-05-17T09:21:49.164Z,6.90
2023-05-17T09:25:52.757Z,6.80
2023-05-17T09:29:56.344Z,6.60
2023-05-17T09:34:01.360Z,6.60
2023-05-17T09:38:09.544Z,6.60
2023-05-17T09:42:13.134Z,6.60
2023-05-17T09:46:17.191Z,6.70
2023-05-17T09:50:23.762Z,6.70
2023-05-17T09:54:33.712Z,6.90
2023-05-17T09:58:38.711Z,6.90
2023-05-17T10:02:44.210Z,6.90
2023-05-17T10:06:51.659Z,7.00
2023-05-17T10:11:02.189Z,7.00
2023-05-17T10:15:06.678Z,7.20
2023-05-17T10:19:12.713Z,7.20
2023-05-17T10:23:17.602Z,7.30
2023-05-17T10:27:22.981Z,7.20
2023-05-17T10:31:27.041Z,7.10
2023-05-17T10:35:32.689Z,7.10
2023-05-17T10:39:38.651Z,7.20
2023-05-17T10:43:45.949Z,7.30
2023-05-17T10:47:52.826Z,7.30
2023-05-17T10:52:01.219Z,7.30
2023-05-17T10:56:04.611Z,7.20
2023-05-17T11:00:12.564Z,7.20
2023-05-17T11:04:26.303Z,7.30
2023-05-17T11:08:30.349Z,7.30
2023-05-17T11:12:38.556Z,7.30
2023-05-17T11:16:45.447Z,7.20
2023-05-17T11:21:08.630Z,7.10
2023-05-17T11:25:14.166Z,7.10
2023-05-17T11:29:19.218Z,7.20
2023-05-17T11:33:39.919Z,7.30
2023-05-17T11:37:45.383Z,7.30
2023-05-17T11:41:53.330Z,7.30
2023-05-17T11:45:58.514Z,7.30
2023-05-17T11:50:05.075Z,7.40
2023-05-17T11:54:08.770Z,7.50
2023-05-17T11:58:14.091Z,7.50
2023-05-17T12:02:31.657Z,7.60
2023-05-17T12:06:38.447Z,7.50
2023-05-17T12:10:46.895Z,7.50
2023-05-17T12:14:51.169Z,7.50
2023-05-17T12:18:57.352Z,7.60
2023-05-17T12:23:02.556Z,7.60
2023-05-17T12:27:08.171Z,7.70
2023-05-17T12:31:13.840Z,7.80
2023-05-17T12:35:17.705Z,8.00
2023-05-17T12:39:24.835Z,8.00
2023-05-17T12:43:28.805Z,8.10
2023-05-17T12:47:33.004Z,8.20
2023-05-17T12:51:43.115Z,8.20
2023-05-17T12:55:49.535Z,8.10
2023-05-17T12:59:54.565Z,8.10
2023-05-17T13:03:58.427Z,8.10
2023-05-17T13:08:24.794Z,8.20
2023-05-17T13:12:29.812Z,8.20
2023-05-17T13:16:35.658Z,8.20
2023-05-17T13:20:39.260Z,8.20
2023-05-17T13:24:44.309Z,8.10
2023-05-17T13:28:51.365Z,8.10
2023-05-17T13:32:56.193Z,8.10
2023-05-17T13:36:59.827Z,8.10
2023-05-17T13:41:03.374Z,8.10
2023-05-17T13:45:11.871Z,8.10
2023-05-17T13:49:16.517Z,8.10
2023-05-17T13:53:21.329Z,8.00
2023-05-17T13:57:25.003Z,8.00
2023-05-17T14:01:32.180Z,8.00
2023-05-17T14:05:36.748Z,8.00
2023-05-17T14:09:41.300Z,7.80
2023-05-17T14:13:44.786Z,7.90
2023-05-17T14:17:52.223Z,7.90
2023-05-17T14:21:55.692Z,7.90
2023-05-17T14:25:59.598Z,7.90
2023-05-17T14:30:03.044Z,7.90
2023-05-17T14:34:09.341Z,7.90
2023-05-17T14:38:12.792Z,7.90
2023-05-17T14:42:44.572Z,7.90
2023-05-17T14:46:50.125Z,7.90
2023-05-17T14:50:56.233Z,8.00
2023-05-17T14:55:01.284Z,8.00
2023-05-17T14:59:04.773Z,8.10
2023-05-17T15:03:33.238Z,8.20
2023-05-17T15:07:38.739Z,8.20
2023-05-17T15:11:43.357Z,8.20
2023-05-17T15:15:46.931Z,8.30
2023-05-17T15:19:50.482Z,8.30
2023-05-17T15:23:55.537Z,8.30
2023-05-17T15:27:59.269Z,8.30
2023-05-17T15:32:02.767Z,8.20
2023-05-17T15:36:10.266Z,8.10
2023-05-17T15:40:17.051Z,7.90
2023-05-17T15:44:23.954Z,7.90
2023-05-17T15:48:29.404Z,7.70
2023-05-17T15:52:33.561Z,7.70
2023-05-17T15:56:39.731Z,7.70
2023-05-17T16:00:43.759Z,7.60
2023-05-17T16:04:49.005Z,7.50
2023-05-17T16:08:52.471Z,7.50
2023-05-17T16:12:57.799Z,7.50
2023-05-17T16:17:02.474Z,7.40
2023-05-17T16:21:06.771Z,7.40
2023-05-17T16:25:10.234Z,7.40
2023-05-17T16:29:17.009Z,7.40
2023-05-17T16:33:21.533Z,7.40
2023-05-17T16:37:26.431Z,7.50
2023-05-17T16:41:31.871Z,7.40
2023-05-17T16:45:38.179Z,7.30
2023-05-17T16:49:42.261Z,7.10
2023-05-17T16:53:46.963Z,7.00
2023-05-17T16:57:50.392Z,7.00
2023-05-17T17:01:56.855Z,7.00
2023-05-17T17:06:00.394Z,6.90
2023-05-17T17:10:05.666Z,6.90
2023-05-17T17:14:09.199Z,6.80
2023-05-17T17:18:17.878Z,6.70
2023-05-17T17:22:21.859Z,6.50
2023-05-17T17:26:25.474Z,6.50
2023-05-17T17:30:29.218Z,6.40
2023-05-17T17:34:35.505Z,6.20
2023-05-17T17:38:39.267Z,6.20
2023-05-17T17:42:42.932Z,6.20
2023-05-17T17:46:47.875Z,6.20
2023-05-17T17:50:53.376Z,6.20
2023-05-17T17:54:57.885Z,6.20
2023-05-17T17:59:04.163Z,6.20
2023-05-17T18:03:09.221Z,6.20
2023-05-17T18:07:19.678Z,6.20
2023-05-17T18:11:25.002Z,6.30
2023-05-17T18:15:29.466Z,6.30
2023-05-17T18:19:36.314Z,6.30
2023-05-17T18:23:41.600Z,6.20
2023-05-17T18:27:46.232Z,6.20
2023-05-17T18:31:52.963Z,6.20
2023-05-17T18:35:58.749Z,6.20
2023-05-17T18:40:03.925Z,6.10
2023-05-17T18:44:07.257Z,6.20
2023-05-17T18:48:10.909Z,6.20
2023-05-17T18:52:15.073Z,6.20
2023-05-17T18:56:22.969Z,6.10
2023-05-17T19:00:28.936Z,6.10
2023-05-17T19:04:32.761Z,6.00
2023-05-17T19:08:38.495Z,5.90
2023-05-17T19:12:45.588Z,5.90
2023-05-17T19:16:51.788Z,5.80
2023-05-17T19:20:57.841Z,5.80
2023-05-17T19:25:25.465Z,5.80
2023-05-17T19:29:35.405Z,5.70
2023-05-17T19:33:41.776Z,5.60
2023-05-17T19:37:48.623Z,5.60
2023-05-17T19:41:51.996Z,5.60
2023-05-17T19:46:41.942Z,5.70
2023-05-17T19:50:59.995Z,5.70
2023-05-17T19:55:07.111Z,5.70
2023-05-17T19:59:16.058Z,5.70
2023-05-17T20:03:22.763Z,5.70
2023-05-17T20:07:30.255Z,5.70
2023-05-17T20:11:35.112Z,5.70
2023-05-17T20:15:38.512Z,5.70
2023-05-17T20:19:44.623Z,5.80
2023-05-17T20:23:48.183Z,5.80
2023-05-17T20:27:51.768Z,5.80
2023-05-17T20:31:56.542Z,5.70
2023-05-17T20:36:02.752Z,5.70
2023-05-17T20:40:09.218Z,5.70
2023-05-17T20:44:13.654Z,5.70
2023-05-17T20:48:19.358Z,5.80
2023-05-17T20:52:38.278Z,5.80
2023-05-17T20:56:42.867Z,5.80
2023-05-17T21:00:47.521Z,5.90
2023-05-17T21:04:54.295Z,5.90
2023-05-17T21:09:06.385Z,5.90
2023-05-17T21:13:10.497Z,5.90
2023-05-17T21:17:23.239Z,5.90
2023-05-17T21:21:27.096Z,5.80
2023-05-17T21:25:38.720Z,5.80
2023-05-17T21:29:42.070Z,5.70
2023-05-17T21:33:46.177Z,5.70
2023-05-17T21:37:49.473Z,5.70
2023-05-17T21:41:54.568Z,5.80
2023-05-17T21:45:57.869Z,5.80
2023-05-17T21:50:01.378Z,5.80
2023-05-17T21:54:05.184Z,5.80
2023-05-17T21:58:15.141Z,5.80
2023-05-17T22:02:18.956Z,5.80
2023-05-17T22:06:23.663Z,5.70
2023-05-17T22:10:27.049Z,5.80
2023-05-17T22:14:33.401Z,5.80
2023-05-17T22:18:36.954Z,5.80
2023-05-17T22:22:40.603Z,5.80
2023-05-17T22:26:44.019Z,5.80
2023-05-17T22:30:48.968Z,5.80
2023-05-17T22:34:53.068Z,5.70
2023-05-17T22:38:58.888Z,5.80
2023-05-17T22:43:02.329Z,5.80
2023-05-17T22:47:08.883Z,5.80
2023-05-17T22:51:13.911Z,5.80
2023-05-17T22:55:17.694Z,5.80
2023-05-17T22:59:21.332Z,5.80
2023-05-17T23:03:26.368Z,5.80
2023-05-17T23:07:29.771Z,5.80
2023-05-17T23:11:34.934Z,5.80
2023-05-17T23:15:40.942Z,5.80
2023-05-17T23:19:46.330Z,5.80
2023-05-17T23:23:53.726Z,5.80
2023-05-17T23:27:58.332Z,5.80
2023-05-17T23:32:02.029Z,5.70
2023-05-17T23:36:07.979Z,5.70
2023-05-17T23:40:12.815Z,5.70
2023-05-17T23:44:18.110Z,5.70
2023-05-17T23:48:25.739Z,5.70
2023-05-17T23:52:32.885Z,5.70
2023-05-17T23:56:37.100Z,5.60
